sensor_id;sensor_type;location;lat;lon;timestamp;P1;durP1;ratioP1;P2;durP2;ratioP2
9445;SDS011;4761;49.490;10.908;2024-02-23T00:01:25;0.50;;;0.40;;
9445;SDS011;4761;49.490;10.908;2024-02-23T00:03:51;0.33;;;0.33;;
9445;SDS011;4761;49.490;10.908;2024-02-23T00:06:17;0.30;;;0.30;;
9445;SDS011;4761;49.490;10.908;2024-02-23T00:08:43;0.60;;;0.40;;
9445;SDS011;4761;49.490;10.908;2024-02-23T00:11:08;0.50;;;0.40;;
9445;SDS011;4761;49.490;10.908;2024-02-23T00:13:34;0.97;;;0.50;;
9445;SDS011;4761;49.490;10.908;2024-02-23T00:16:00;0.47;;;0.47;;
9445;SDS011;4761;49.490;10.908;2024-02-23T00:18:26;0.30;;;0.30;;
9445;SDS011;4761;49.490;10.908;2024-02-23T00:20:51;0.30;;;0.30;;
9445;SDS011;4761;49.490;10.908;2024-02-23T00:23:17;0.40;;;0.30;;
9445;SDS011;4761;49.490;10.908;2024-02-23T00:25:44;0.40;;;0.40;;
9445;SDS011;4761;49.490;10.908;2024-02-23T00:28:09;0.70;;;0.30;;
9445;SDS011;4761;49.490;10.908;2024-02-23T00:30:35;0.40;;;0.40;;
9445;SDS011;4761;49.490;10.908;2024-02-23T00:33:01;0.30;;;0.30;;
9445;SDS011;4761;49.490;10.908;2024-02-23T00:35:26;0.57;;;0.43;;
9445;SDS011;4761;49.490;10.908;2024-02-23T00:37:52;1.60;;;0.40;;
9445;SDS011;4761;49.490;10.908;2024-02-23T00:40:17;0.30;;;0.30;;
9445;SDS011;4761;49.490;10.908;2024-02-23T00:42:43;0.63;;;0.40;;
9445;SDS011;4761;49.490;10.908;2024-02-23T00:45:08;1.23;;;0.60;;
9445;SDS011;4761;49.490;10.908;2024-02-23T00:47:34;0.30;;;0.30;;
9445;SDS011;4761;49.490;10.908;2024-02-23T00:50:00;0.30;;;0.30;;
9445;SDS011;4761;49.490;10.908;2024-02-23T00:52:26;0.60;;;0.50;;
9445;SDS011;4761;49.490;10.908;2024-02-23T00:54:52;0.37;;;0.37;;
9445;SDS011;4761;49.490;10.908;2024-02-23T00:57:18;0.30;;;0.30;;
9445;SDS011;4761;49.490;10.908;2024-02-23T00:59:50;0.30;;;0.30;;
9445;SDS011;4761;49.490;10.908;2024-02-23T01:02:16;0.97;;;0.50;;
9445;SDS011;4761;49.490;10.908;2024-02-23T01:04:42;0.30;;;0.30;;
9445;SDS011;4761;49.490;10.908;2024-02-23T01:07:07;0.30;;;0.30;;
9445;SDS011;4761;49.490;10.908;2024-02-23T01:09:33;0.33;;;0.33;;
9445;SDS011;4761;49.490;10.908;2024-02-23T01:11:59;0.40;;;0.30;;
9445;SDS011;4761;49.490;10.908;2024-02-23T01:14:25;0.73;;;0.40;;
9445;SDS011;4761;49.490;10.908;2024-02-23T01:16:50;0.30;;;0.30;;
9445;SDS011;4761;49.490;10.908;2024-02-23T01:19:15;1.57;;;0.30;;
9445;SDS011;4761;49.490;10.908;2024-02-23T01:21:41;0.57;;;0.40;;
9445;SDS011;4761;49.490;10.908;2024-02-23T01:24:07;0.67;;;0.40;;
9445;SDS011;4761;49.490;10.908;2024-02-23T01:26:32;0.40;;;0.40;;
9445;SDS011;4761;49.490;10.908;2024-02-23T01:28:58;0.40;;;0.40;;
9445;SDS011;4761;49.490;10.908;2024-02-23T01:31:23;0.60;;;0.40;;
9445;SDS011;4761;49.490;10.908;2024-02-23T01:33:49;0.63;;;0.40;;
9445;SDS011;4761;49.490;10.908;2024-02-23T01:36:15;0.50;;;0.40;;
9445;SDS011;4761;49.490;10.908;2024-02-23T01:38:41;0.43;;;0.37;;
9445;SDS011;4761;49.490;10.908;2024-02-23T01:41:08;0.60;;;0.40;;
9445;SDS011;4761;49.490;10.908;2024-02-23T01:43:33;0.30;;;0.30;;
9445;SDS011;4761;49.490;10.908;2024-02-23T01:45:59;0.60;;;0.33;;
9445;SDS011;4761;49.490;10.908;2024-02-23T01:48:25;1.10;;;0.50;;
9445;SDS011;4761;49.490;10.908;2024-02-23T01:50:51;0.47;;;0.33;;
9445;SDS011;4761;49.490;10.908;2024-02-23T01:53:16;0.47;;;0.30;;
9445;SDS011;4761;49.490;10.908;2024-02-23T01:55:45;0.37;;;0.37;;
9445;SDS011;4761;49.490;10.908;2024-02-23T01:58:11;0.40;;;0.40;;
9445;SDS011;4761;49.490;10.908;2024-02-23T02:00:36;0.65;;;0.40;;
9445;SDS011;4761;49.490;10.908;2024-02-23T02:03:02;0.50;;;0.40;;
9445;SDS011;4761;49.490;10.908;2024-02-23T02:05:28;0.37;;;0.37;;
9445;SDS011;4761;49.490;10.908;2024-02-23T02:07:54;0.63;;;0.40;;
9445;SDS011;4761;49.490;10.908;2024-02-23T02:10:24;0.37;;;0.33;;
9445;SDS011;4761;49.490;10.908;2024-02-23T02:12:50;0.87;;;0.47;;
9445;SDS011;4761;49.490;10.908;2024-02-23T02:15:15;1.10;;;0.40;;
9445;SDS011;4761;49.490;10.908;2024-02-23T02:17:41;0.30;;;0.30;;
9445;SDS011;4761;49.490;10.908;2024-02-23T02:20:08;0.30;;;0.30;;
9445;SDS011;4761;49.490;10.908;2024-02-23T02:22:36;0.50;;;0.40;;
9445;SDS011;4761;49.490;10.908;2024-02-23T02:25:02;0.40;;;0.40;;
9445;SDS011;4761;49.490;10.908;2024-02-23T02:27:28;0.53;;;0.40;;
9445;SDS011;4761;49.490;10.908;2024-02-23T02:29:53;1.03;;;0.37;;
9445;SDS011;4761;49.490;10.908;2024-02-23T02:32:19;0.70;;;0.50;;
9445;SDS011;4761;49.490;10.908;2024-02-23T02:34:44;0.97;;;0.50;;
9445;SDS011;4761;49.490;10.908;2024-02-23T02:37:10;0.57;;;0.40;;
9445;SDS011;4761;49.490;10.908;2024-02-23T02:39:35;1.00;;;0.50;;
9445;SDS011;4761;49.490;10.908;2024-02-23T02:42:01;1.10;;;0.30;;
9445;SDS011;4761;49.490;10.908;2024-02-23T02:44:27;0.80;;;0.60;;
9445;SDS011;4761;49.490;10.908;2024-02-23T02:46:55;0.60;;;0.47;;
9445;SDS011;4761;49.490;10.908;2024-02-23T02:49:23;0.53;;;0.50;;
9445;SDS011;4761;49.490;10.908;2024-02-23T02:51:49;0.50;;;0.40;;
9445;SDS011;4761;49.490;10.908;2024-02-23T02:54:15;0.50;;;0.50;;
9445;SDS011;4761;49.490;10.908;2024-02-23T02:56:44;0.63;;;0.50;;
9445;SDS011;4761;49.490;10.908;2024-02-23T02:59:11;1.13;;;0.50;;
9445;SDS011;4761;49.490;10.908;2024-02-23T03:01:37;1.47;;;0.70;;
9445;SDS011;4761;49.490;10.908;2024-02-23T03:04:03;0.77;;;0.53;;
9445;SDS011;4761;49.490;10.908;2024-02-23T03:06:29;0.50;;;0.50;;
9445;SDS011;4761;49.490;10.908;2024-02-23T03:08:55;1.83;;;0.60;;
9445;SDS011;4761;49.490;10.908;2024-02-23T03:11:20;1.67;;;0.50;;
9445;SDS011;4761;49.490;10.908;2024-02-23T03:13:46;1.33;;;0.50;;
9445;SDS011;4761;49.490;10.908;2024-02-23T03:16:17;1.23;;;0.50;;
9445;SDS011;4761;49.490;10.908;2024-02-23T03:18:43;0.77;;;0.43;;
9445;SDS011;4761;49.490;10.908;2024-02-23T03:21:09;1.27;;;0.60;;
9445;SDS011;4761;49.490;10.908;2024-02-23T03:23:35;0.80;;;0.63;;
9445;SDS011;4761;49.490;10.908;2024-02-23T03:26:01;1.37;;;0.57;;
9445;SDS011;4761;49.490;10.908;2024-02-23T03:28:27;1.07;;;0.50;;
9445;SDS011;4761;49.490;10.908;2024-02-23T03:30:52;1.30;;;0.50;;
9445;SDS011;4761;49.490;10.908;2024-02-23T03:33:18;0.97;;;0.57;;
9445;SDS011;4761;49.490;10.908;2024-02-23T03:35:43;0.73;;;0.50;;
9445;SDS011;4761;49.490;10.908;2024-02-23T03:38:09;0.90;;;0.50;;
9445;SDS011;4761;49.490;10.908;2024-02-23T03:40:35;1.17;;;0.53;;
9445;SDS011;4761;49.490;10.908;2024-02-23T03:43:01;0.90;;;0.50;;
9445;SDS011;4761;49.490;10.908;2024-02-23T03:45:27;0.40;;;0.40;;
9445;SDS011;4761;49.490;10.908;2024-02-23T03:47:53;1.50;;;0.60;;
9445;SDS011;4761;49.490;10.908;2024-02-23T03:50:18;0.77;;;0.50;;
9445;SDS011;4761;49.490;10.908;2024-02-23T03:52:44;0.83;;;0.70;;
9445;SDS011;4761;49.490;10.908;2024-02-23T03:55:10;1.57;;;0.60;;
9445;SDS011;4761;49.490;10.908;2024-02-23T03:57:35;1.13;;;0.40;;
9445;SDS011;4761;49.490;10.908;2024-02-23T04:00:01;1.13;;;0.70;;
9445;SDS011;4761;49.490;10.908;2024-02-23T04:02:27;2.17;;;0.80;;
9445;SDS011;4761;49.490;10.908;2024-02-23T04:04:53;1.00;;;0.70;;
9445;SDS011;4761;49.490;10.908;2024-02-23T04:07:19;1.50;;;0.60;;
9445;SDS011;4761;49.490;10.908;2024-02-23T04:09:44;1.77;;;0.60;;
9445;SDS011;4761;49.490;10.908;2024-02-23T04:12:10;1.33;;;0.60;;
9445;SDS011;4761;49.490;10.908;2024-02-23T04:14:35;1.77;;;0.67;;
9445;SDS011;4761;49.490;10.908;2024-02-23T04:17:04;1.23;;;0.50;;
9445;SDS011;4761;49.490;10.908;2024-02-23T04:19:30;1.47;;;0.90;;
9445;SDS011;4761;49.490;10.908;2024-02-23T04:21:55;1.47;;;0.87;;
9445;SDS011;4761;49.490;10.908;2024-02-23T04:24:21;0.83;;;0.60;;
9445;SDS011;4761;49.490;10.908;2024-02-23T04:26:47;1.53;;;0.67;;
9445;SDS011;4761;49.490;10.908;2024-02-23T04:29:12;2.10;;;0.70;;
9445;SDS011;4761;49.490;10.908;2024-02-23T04:31:38;1.50;;;0.90;;
9445;SDS011;4761;49.490;10.908;2024-02-23T04:34:03;1.73;;;0.80;;
9445;SDS011;4761;49.490;10.908;2024-02-23T04:36:29;2.30;;;0.90;;
9445;SDS011;4761;49.490;10.908;2024-02-23T04:38:54;1.43;;;0.87;;
9445;SDS011;4761;49.490;10.908;2024-02-23T04:41:20;1.90;;;0.87;;
9445;SDS011;4761;49.490;10.908;2024-02-23T04:43:47;1.20;;;0.73;;
9445;SDS011;4761;49.490;10.908;2024-02-23T04:46:12;1.43;;;0.80;;
9445;SDS011;4761;49.490;10.908;2024-02-23T04:48:38;1.63;;;0.70;;
9445;SDS011;4761;49.490;10.908;2024-02-23T04:51:04;2.17;;;1.00;;
9445;SDS011;4761;49.490;10.908;2024-02-23T04:53:30;2.10;;;0.70;;
9445;SDS011;4761;49.490;10.908;2024-02-23T04:55:55;2.20;;;0.77;;
9445;SDS011;4761;49.490;10.908;2024-02-23T04:58:21;1.93;;;0.70;;
9445;SDS011;4761;49.490;10.908;2024-02-23T05:00:47;1.37;;;0.70;;
9445;SDS011;4761;49.490;10.908;2024-02-23T05:03:12;1.88;;;0.80;;
9445;SDS011;4761;49.490;10.908;2024-02-23T05:05:39;0.93;;;0.53;;
9445;SDS011;4761;49.490;10.908;2024-02-23T05:08:04;1.00;;;0.67;;
9445;SDS011;4761;49.490;10.908;2024-02-23T05:10:30;1.23;;;0.70;;
9445;SDS011;4761;49.490;10.908;2024-02-23T05:12:55;1.63;;;0.50;;
9445;SDS011;4761;49.490;10.908;2024-02-23T05:15:21;1.33;;;0.70;;
9445;SDS011;4761;49.490;10.908;2024-02-23T05:17:46;1.30;;;0.70;;
9445;SDS011;4761;49.490;10.908;2024-02-23T05:20:12;2.40;;;1.20;;
9445;SDS011;4761;49.490;10.908;2024-02-23T05:22:39;0.90;;;0.70;;
9445;SDS011;4761;49.490;10.908;2024-02-23T05:25:05;1.40;;;0.70;;
9445;SDS011;4761;49.490;10.908;2024-02-23T05:27:31;2.10;;;0.60;;
9445;SDS011;4761;49.490;10.908;2024-02-23T05:29:56;1.77;;;0.57;;
9445;SDS011;4761;49.490;10.908;2024-02-23T05:32:22;1.50;;;0.70;;
9445;SDS011;4761;49.490;10.908;2024-02-23T05:34:48;2.50;;;0.83;;
9445;SDS011;4761;49.490;10.908;2024-02-23T05:37:16;1.33;;;0.73;;
9445;SDS011;4761;49.490;10.908;2024-02-23T05:39:42;1.50;;;0.70;;
9445;SDS011;4761;49.490;10.908;2024-02-23T05:42:08;1.43;;;0.70;;
9445;SDS011;4761;49.490;10.908;2024-02-23T05:44:33;1.00;;;0.60;;
9445;SDS011;4761;49.490;10.908;2024-02-23T05:46:59;1.80;;;0.87;;
9445;SDS011;4761;49.490;10.908;2024-02-23T05:49:24;2.03;;;0.90;;
9445;SDS011;4761;49.490;10.908;2024-02-23T05:51:50;1.57;;;0.93;;
9445;SDS011;4761;49.490;10.908;2024-02-23T05:54:15;3.10;;;1.52;;
9445;SDS011;4761;49.490;10.908;2024-02-23T05:56:41;3.23;;;1.40;;
9445;SDS011;4761;49.490;10.908;2024-02-23T05:59:08;2.73;;;1.47;;
9445;SDS011;4761;49.490;10.908;2024-02-23T06:01:34;1.73;;;1.10;;
9445;SDS011;4761;49.490;10.908;2024-02-23T06:03:59;1.87;;;1.40;;
9445;SDS011;4761;49.490;10.908;2024-02-23T06:06:25;2.20;;;1.20;;
9445;SDS011;4761;49.490;10.908;2024-02-23T06:08:50;1.90;;;1.30;;
9445;SDS011;4761;49.490;10.908;2024-02-23T06:11:16;3.33;;;1.40;;
9445;SDS011;4761;49.490;10.908;2024-02-23T06:13:42;1.47;;;1.10;;
9445;SDS011;4761;49.490;10.908;2024-02-23T06:16:10;2.00;;;1.00;;
9445;SDS011;4761;49.490;10.908;2024-02-23T06:18:36;1.83;;;1.10;;
9445;SDS011;4761;49.490;10.908;2024-02-23T06:21:10;2.23;;;1.23;;
9445;SDS011;4761;49.490;10.908;2024-02-23T06:23:37;1.88;;;1.10;;
9445;SDS011;4761;49.490;10.908;2024-02-23T06:26:04;2.10;;;1.27;;
9445;SDS011;4761;49.490;10.908;2024-02-23T06:28:30;1.57;;;1.00;;
9445;SDS011;4761;49.490;10.908;2024-02-23T06:30:56;1.47;;;1.00;;
9445;SDS011;4761;49.490;10.908;2024-02-23T06:33:21;2.13;;;1.10;;
9445;SDS011;4761;49.490;10.908;2024-02-23T06:35:47;1.70;;;1.00;;
9445;SDS011;4761;49.490;10.908;2024-02-23T06:38:12;1.43;;;0.90;;
9445;SDS011;4761;49.490;10.908;2024-02-23T06:40:38;1.43;;;0.90;;
9445;SDS011;4761;49.490;10.908;2024-02-23T06:43:03;2.10;;;1.05;;
9445;SDS011;4761;49.490;10.908;2024-02-23T06:45:29;1.63;;;1.00;;
9445;SDS011;4761;49.490;10.908;2024-02-23T06:47:54;1.50;;;1.00;;
9445;SDS011;4761;49.490;10.908;2024-02-23T06:50:20;2.30;;;1.10;;
9445;SDS011;4761;49.490;10.908;2024-02-23T06:52:46;1.30;;;1.00;;
9445;SDS011;4761;49.490;10.908;2024-02-23T06:55:13;2.00;;;1.20;;
9445;SDS011;4761;49.490;10.908;2024-02-23T06:57:39;1.97;;;1.10;;
9445;SDS011;4761;49.490;10.908;2024-02-23T07:00:04;1.43;;;0.97;;
9445;SDS011;4761;49.490;10.908;2024-02-23T07:02:32;3.07;;;1.17;;
9445;SDS011;4761;49.490;10.908;2024-02-23T07:05:01;1.53;;;0.90;;
9445;SDS011;4761;49.490;10.908;2024-02-23T07:07:29;2.67;;;1.20;;
9445;SDS011;4761;49.490;10.908;2024-02-23T07:09:55;2.57;;;1.13;;
9445;SDS011;4761;49.490;10.908;2024-02-23T07:12:21;2.20;;;1.27;;
9445;SDS011;4761;49.490;10.908;2024-02-23T07:14:46;2.20;;;1.20;;
9445;SDS011;4761;49.490;10.908;2024-02-23T07:17:16;2.13;;;1.30;;
9445;SDS011;4761;49.490;10.908;2024-02-23T07:19:42;2.30;;;1.23;;
9445;SDS011;4761;49.490;10.908;2024-02-23T07:22:07;1.60;;;1.10;;
9445;SDS011;4761;49.490;10.908;2024-02-23T07:24:33;1.57;;;1.00;;
9445;SDS011;4761;49.490;10.908;2024-02-23T07:26:58;1.33;;;1.00;;
9445;SDS011;4761;49.490;10.908;2024-02-23T07:29:24;1.30;;;1.00;;
9445;SDS011;4761;49.490;10.908;2024-02-23T07:31:49;1.10;;;0.90;;
9445;SDS011;4761;49.490;10.908;2024-02-23T07:34:15;1.83;;;1.20;;
9445;SDS011;4761;49.490;10.908;2024-02-23T07:36:40;1.57;;;1.00;;
9445;SDS011;4761;49.490;10.908;2024-02-23T07:39:06;1.73;;;1.10;;
9445;SDS011;4761;49.490;10.908;2024-02-23T07:41:32;1.53;;;0.90;;
9445;SDS011;4761;49.490;10.908;2024-02-23T07:43:57;1.23;;;1.00;;
9445;SDS011;4761;49.490;10.908;2024-02-23T07:46:23;1.70;;;1.00;;
9445;SDS011;4761;49.490;10.908;2024-02-23T07:48:48;0.93;;;0.83;;
9445;SDS011;4761;49.490;10.908;2024-02-23T07:51:14;2.97;;;1.17;;
9445;SDS011;4761;49.490;10.908;2024-02-23T07:53:40;1.50;;;0.90;;
9445;SDS011;4761;49.490;10.908;2024-02-23T07:56:07;1.37;;;0.90;;
9445;SDS011;4761;49.490;10.908;2024-02-23T07:58:32;1.90;;;0.70;;
9445;SDS011;4761;49.490;10.908;2024-02-23T08:00:58;1.63;;;1.00;;
9445;SDS011;4761;49.490;10.908;2024-02-23T08:03:24;2.03;;;1.07;;
9445;SDS011;4761;49.490;10.908;2024-02-23T08:05:49;3.13;;;1.03;;
9445;SDS011;4761;49.490;10.908;2024-02-23T08:08:14;1.43;;;0.87;;
9445;SDS011;4761;49.490;10.908;2024-02-23T08:10:40;1.83;;;0.90;;
9445;SDS011;4761;49.490;10.908;2024-02-23T08:13:05;2.40;;;1.20;;
9445;SDS011;4761;49.490;10.908;2024-02-23T08:15:31;2.33;;;1.37;;
9445;SDS011;4761;49.490;10.908;2024-02-23T08:17:57;2.17;;;1.40;;
9445;SDS011;4761;49.490;10.908;2024-02-23T08:20:22;2.20;;;1.53;;
9445;SDS011;4761;49.490;10.908;2024-02-23T08:22:48;2.37;;;1.40;;
9445;SDS011;4761;49.490;10.908;2024-02-23T08:25:13;2.03;;;1.40;;
9445;SDS011;4761;49.490;10.908;2024-02-23T08:27:40;1.70;;;1.23;;
9445;SDS011;4761;49.490;10.908;2024-02-23T08:30:06;1.80;;;1.30;;
9445;SDS011;4761;49.490;10.908;2024-02-23T08:32:32;2.23;;;1.47;;
9445;SDS011;4761;49.490;10.908;2024-02-23T08:34:57;2.27;;;1.30;;
9445;SDS011;4761;49.490;10.908;2024-02-23T08:37:24;1.40;;;1.20;;
9445;SDS011;4761;49.490;10.908;2024-02-23T08:39:50;1.90;;;1.23;;
9445;SDS011;4761;49.490;10.908;2024-02-23T08:42:16;2.03;;;1.17;;
9445;SDS011;4761;49.490;10.908;2024-02-23T08:44:41;1.30;;;1.07;;
9445;SDS011;4761;49.490;10.908;2024-02-23T08:47:07;1.87;;;1.20;;
9445;SDS011;4761;49.490;10.908;2024-02-23T08:49:33;1.50;;;1.10;;
9445;SDS011;4761;49.490;10.908;2024-02-23T08:51:58;1.83;;;1.17;;
9445;SDS011;4761;49.490;10.908;2024-02-23T08:54:24;1.80;;;1.10;;
9445;SDS011;4761;49.490;10.908;2024-02-23T08:56:49;1.60;;;1.03;;
9445;SDS011;4761;49.490;10.908;2024-02-23T08:59:15;1.37;;;0.93;;
9445;SDS011;4761;49.490;10.908;2024-02-23T09:01:40;2.30;;;1.10;;
9445;SDS011;4761;49.490;10.908;2024-02-23T09:04:06;2.23;;;1.27;;
9445;SDS011;4761;49.490;10.908;2024-02-23T09:06:31;1.33;;;1.00;;
9445;SDS011;4761;49.490;10.908;2024-02-23T09:08:58;1.17;;;1.07;;
9445;SDS011;4761;49.490;10.908;2024-02-23T09:11:23;2.20;;;1.10;;
9445;SDS011;4761;49.490;10.908;2024-02-23T09:13:49;1.53;;;1.13;;
9445;SDS011;4761;49.490;10.908;2024-02-23T09:16:14;2.80;;;1.10;;
9445;SDS011;4761;49.490;10.908;2024-02-23T09:18:41;1.40;;;0.90;;
9445;SDS011;4761;49.490;10.908;2024-02-23T09:21:06;1.00;;;0.97;;
9445;SDS011;4761;49.490;10.908;2024-02-23T09:23:32;1.40;;;0.80;;
9445;SDS011;4761;49.490;10.908;2024-02-23T09:25:58;0.77;;;0.77;;
9445;SDS011;4761;49.490;10.908;2024-02-23T09:28:24;1.03;;;0.90;;
9445;SDS011;4761;49.490;10.908;2024-02-23T09:30:49;2.13;;;1.13;;
9445;SDS011;4761;49.490;10.908;2024-02-23T09:33:15;2.00;;;1.00;;
9445;SDS011;4761;49.490;10.908;2024-02-23T09:35:40;1.77;;;0.80;;
9445;SDS011;4761;49.490;10.908;2024-02-23T09:38:06;1.20;;;0.77;;
9445;SDS011;4761;49.490;10.908;2024-02-23T09:40:31;1.67;;;0.90;;
9445;SDS011;4761;49.490;10.908;2024-02-23T09:42:57;1.90;;;0.93;;
9445;SDS011;4761;49.490;10.908;2024-02-23T09:45:24;1.37;;;0.70;;
9445;SDS011;4761;49.490;10.908;2024-02-23T09:47:52;1.53;;;1.00;;
9445;SDS011;4761;49.490;10.908;2024-02-23T09:50:20;2.07;;;1.20;;
9445;SDS011;4761;49.490;10.908;2024-02-23T09:52:48;3.97;;;2.23;;
9445;SDS011;4761;49.490;10.908;2024-02-23T09:55:15;2.42;;;1.95;;
9445;SDS011;4761;49.490;10.908;2024-02-23T09:57:41;3.27;;;1.93;;
9445;SDS011;4761;49.490;10.908;2024-02-23T10:00:07;1.93;;;1.53;;
9445;SDS011;4761;49.490;10.908;2024-02-23T10:02:34;2.40;;;1.60;;
9445;SDS011;4761;49.490;10.908;2024-02-23T10:05:00;2.17;;;1.60;;
9445;SDS011;4761;49.490;10.908;2024-02-23T10:07:27;2.60;;;2.10;;
9445;SDS011;4761;49.490;10.908;2024-02-23T10:09:53;4.37;;;2.73;;
9445;SDS011;4761;49.490;10.908;2024-02-23T10:12:20;4.10;;;2.40;;
9445;SDS011;4761;49.490;10.908;2024-02-23T10:14:46;3.63;;;2.40;;
9445;SDS011;4761;49.490;10.908;2024-02-23T10:17:11;2.83;;;1.90;;
9445;SDS011;4761;49.490;10.908;2024-02-23T10:19:37;3.00;;;2.10;;
9445;SDS011;4761;49.490;10.908;2024-02-23T10:22:03;2.13;;;1.70;;
9445;SDS011;4761;49.490;10.908;2024-02-23T10:24:29;2.17;;;1.40;;
9445;SDS011;4761;49.490;10.908;2024-02-23T10:26:55;2.93;;;1.50;;
9445;SDS011;4761;49.490;10.908;2024-02-23T10:29:20;2.80;;;1.47;;
9445;SDS011;4761;49.490;10.908;2024-02-23T10:31:46;2.50;;;1.47;;
9445;SDS011;4761;49.490;10.908;2024-02-23T10:34:14;2.23;;;1.50;;
9445;SDS011;4761;49.490;10.908;2024-02-23T10:36:43;3.17;;;1.73;;
9445;SDS011;4761;49.490;10.908;2024-02-23T10:39:12;1.83;;;1.43;;
9445;SDS011;4761;49.490;10.908;2024-02-23T10:41:44;2.00;;;1.50;;
9445;SDS011;4761;49.490;10.908;2024-02-23T10:44:16;2.00;;;1.40;;
9445;SDS011;4761;49.490;10.908;2024-02-23T10:46:43;2.00;;;1.47;;
9445;SDS011;4761;49.490;10.908;2024-02-23T10:49:09;1.90;;;1.30;;
9445;SDS011;4761;49.490;10.908;2024-02-23T10:51:37;2.00;;;1.47;;
9445;SDS011;4761;49.490;10.908;2024-02-23T10:54:05;1.90;;;1.50;;
9445;SDS011;4761;49.490;10.908;2024-02-23T10:56:31;2.67;;;1.40;;
9445;SDS011;4761;49.490;10.908;2024-02-23T10:58:57;3.00;;;1.50;;
9445;SDS011;4761;49.490;10.908;2024-02-23T11:01:22;2.43;;;1.30;;
9445;SDS011;4761;49.490;10.908;2024-02-23T11:03:49;1.97;;;1.20;;
9445;SDS011;4761;49.490;10.908;2024-02-23T11:06:17;2.50;;;1.27;;
9445;SDS011;4761;49.490;10.908;2024-02-23T11:08:46;1.93;;;1.43;;
9445;SDS011;4761;49.490;10.908;2024-02-23T11:11:15;2.17;;;1.10;;
9445;SDS011;4761;49.490;10.908;2024-02-23T11:13:42;1.33;;;1.10;;
9445;SDS011;4761;49.490;10.908;2024-02-23T11:16:09;2.50;;;1.40;;
9445;SDS011;4761;49.490;10.908;2024-02-23T11:18:35;2.13;;;1.30;;
9445;SDS011;4761;49.490;10.908;2024-02-23T11:21:04;2.37;;;1.23;;
9445;SDS011;4761;49.490;10.908;2024-02-23T11:23:47;1.20;;;1.00;;
9445;SDS011;4761;49.490;10.908;2024-02-23T11:26:15;1.70;;;1.20;;
9445;SDS011;4761;49.490;10.908;2024-02-23T11:28:47;2.23;;;1.10;;
9445;SDS011;4761;49.490;10.908;2024-02-23T11:31:14;2.27;;;1.40;;
9445;SDS011;4761;49.490;10.908;2024-02-23T11:33:53;1.90;;;1.20;;
9445;SDS011;4761;49.490;10.908;2024-02-23T11:36:29;1.93;;;1.20;;
9445;SDS011;4761;49.490;10.908;2024-02-23T11:38:57;2.10;;;1.20;;
9445;SDS011;4761;49.490;10.908;2024-02-23T11:41:24;1.17;;;1.03;;
9445;SDS011;4761;49.490;10.908;2024-02-23T11:43:51;1.27;;;0.80;;
9445;SDS011;4761;49.490;10.908;2024-02-23T11:46:18;1.83;;;1.17;;
9445;SDS011;4761;49.490;10.908;2024-02-23T11:48:44;1.95;;;1.00;;
9445;SDS011;4761;49.490;10.908;2024-02-23T11:51:11;1.83;;;1.10;;
9445;SDS011;4761;49.490;10.908;2024-02-23T11:53:38;2.40;;;1.30;;
9445;SDS011;4761;49.490;10.908;2024-02-23T11:56:04;1.47;;;0.90;;
9445;SDS011;4761;49.490;10.908;2024-02-23T11:58:31;1.97;;;1.40;;
9445;SDS011;4761;49.490;10.908;2024-02-23T12:00:58;2.37;;;1.50;;
9445;SDS011;4761;49.490;10.908;2024-02-23T12:03:26;3.00;;;1.73;;
9445;SDS011;4761;49.490;10.908;2024-02-23T12:05:51;3.63;;;2.23;;
9445;SDS011;4761;49.490;10.908;2024-02-23T12:08:17;4.53;;;2.30;;
9445;SDS011;4761;49.490;10.908;2024-02-23T12:10:43;5.50;;;2.70;;
9445;SDS011;4761;49.490;10.908;2024-02-23T12:13:09;4.47;;;2.57;;
9445;SDS011;4761;49.490;10.908;2024-02-23T12:15:35;4.72;;;2.70;;
9445;SDS011;4761;49.490;10.908;2024-02-23T12:18:00;4.13;;;2.70;;
9445;SDS011;4761;49.490;10.908;2024-02-23T12:20:28;5.13;;;2.50;;
9445;SDS011;4761;49.490;10.908;2024-02-23T12:22:58;9.00;;;4.33;;
9445;SDS011;4761;49.490;10.908;2024-02-23T12:25:26;7.57;;;3.90;;
9445;SDS011;4761;49.490;10.908;2024-02-23T12:27:55;7.57;;;3.93;;
9445;SDS011;4761;49.490;10.908;2024-02-23T12:30:21;8.10;;;4.00;;
9445;SDS011;4761;49.490;10.908;2024-02-23T12:32:47;6.77;;;4.10;;
9445;SDS011;4761;49.490;10.908;2024-02-23T12:35:13;6.90;;;4.23;;
9445;SDS011;4761;49.490;10.908;2024-02-23T12:37:40;6.00;;;3.80;;
9445;SDS011;4761;49.490;10.908;2024-02-23T12:40:06;6.97;;;3.97;;
9445;SDS011;4761;49.490;10.908;2024-02-23T12:42:34;6.13;;;4.10;;
9445;SDS011;4761;49.490;10.908;2024-02-23T12:45:00;6.50;;;4.40;;
9445;SDS011;4761;49.490;10.908;2024-02-23T12:47:25;5.47;;;3.80;;
9445;SDS011;4761;49.490;10.908;2024-02-23T12:49:51;5.70;;;3.70;;
9445;SDS011;4761;49.490;10.908;2024-02-23T12:52:16;5.07;;;3.30;;
9445;SDS011;4761;49.490;10.908;2024-02-23T12:54:42;4.60;;;3.03;;
9445;SDS011;4761;49.490;10.908;2024-02-23T12:57:08;5.10;;;3.10;;
9445;SDS011;4761;49.490;10.908;2024-02-23T12:59:33;4.30;;;3.00;;
9445;SDS011;4761;49.490;10.908;2024-02-23T13:01:59;4.20;;;2.70;;
9445;SDS011;4761;49.490;10.908;2024-02-23T13:04:24;3.97;;;2.70;;
9445;SDS011;4761;49.490;10.908;2024-02-23T13:06:50;4.60;;;2.93;;
9445;SDS011;4761;49.490;10.908;2024-02-23T13:09:15;4.10;;;2.73;;
9445;SDS011;4761;49.490;10.908;2024-02-23T13:11:41;3.00;;;2.47;;
9445;SDS011;4761;49.490;10.908;2024-02-23T13:14:07;4.17;;;2.80;;
9445;SDS011;4761;49.490;10.908;2024-02-23T13:16:34;4.03;;;2.90;;
9445;SDS011;4761;49.490;10.908;2024-02-23T13:19:00;3.13;;;2.50;;
9445;SDS011;4761;49.490;10.908;2024-02-23T13:21:25;3.70;;;2.67;;
9445;SDS011;4761;49.490;10.908;2024-02-23T13:23:51;2.60;;;2.03;;
9445;SDS011;4761;49.490;10.908;2024-02-23T13:26:16;5.27;;;2.40;;
9445;SDS011;4761;49.490;10.908;2024-02-23T13:28:42;2.97;;;2.00;;
9445;SDS011;4761;49.490;10.908;2024-02-23T13:31:09;3.50;;;1.80;;
9445;SDS011;4761;49.490;10.908;2024-02-23T13:33:34;2.90;;;2.10;;
9445;SDS011;4761;49.490;10.908;2024-02-23T13:36:00;3.07;;;1.83;;
9445;SDS011;4761;49.490;10.908;2024-02-23T13:38:25;2.30;;;1.43;;
9445;SDS011;4761;49.490;10.908;2024-02-23T13:40:51;2.40;;;1.60;;
9445;SDS011;4761;49.490;10.908;2024-02-23T13:43:17;3.23;;;1.53;;
9445;SDS011;4761;49.490;10.908;2024-02-23T13:45:49;2.30;;;1.80;;
9445;SDS011;4761;49.490;10.908;2024-02-23T13:48:16;2.90;;;1.80;;
9445;SDS011;4761;49.490;10.908;2024-02-23T13:50:43;1.80;;;1.47;;
9445;SDS011;4761;49.490;10.908;2024-02-23T13:53:10;2.43;;;1.50;;
9445;SDS011;4761;49.490;10.908;2024-02-23T13:55:37;2.40;;;1.60;;
9445;SDS011;4761;49.490;10.908;2024-02-23T13:58:02;2.73;;;1.53;;
9445;SDS011;4761;49.490;10.908;2024-02-23T14:00:28;2.80;;;1.53;;
9445;SDS011;4761;49.490;10.908;2024-02-23T14:02:53;2.30;;;1.42;;
9445;SDS011;4761;49.490;10.908;2024-02-23T14:05:19;2.27;;;1.30;;
9445;SDS011;4761;49.490;10.908;2024-02-23T14:07:46;1.77;;;1.17;;
9445;SDS011;4761;49.490;10.908;2024-02-23T14:10:12;1.53;;;1.10;;
9445;SDS011;4761;49.490;10.908;2024-02-23T14:12:38;2.03;;;1.30;;
9445;SDS011;4761;49.490;10.908;2024-02-23T14:15:05;2.20;;;1.10;;
9445;SDS011;4761;49.490;10.908;2024-02-23T14:17:30;1.90;;;1.17;;
9445;SDS011;4761;49.490;10.908;2024-02-23T14:19:56;1.57;;;1.03;;
9445;SDS011;4761;49.490;10.908;2024-02-23T14:22:21;1.80;;;1.10;;
9445;SDS011;4761;49.490;10.908;2024-02-23T14:24:47;2.10;;;1.17;;
9445;SDS011;4761;49.490;10.908;2024-02-23T14:27:13;1.90;;;1.10;;
9445;SDS011;4761;49.490;10.908;2024-02-23T14:29:38;1.40;;;1.00;;
9445;SDS011;4761;49.490;10.908;2024-02-23T14:32:04;1.60;;;1.20;;
9445;SDS011;4761;49.490;10.908;2024-02-23T14:34:29;1.70;;;1.00;;
9445;SDS011;4761;49.490;10.908;2024-02-23T14:36:58;1.87;;;1.30;;
9445;SDS011;4761;49.490;10.908;2024-02-23T14:39:23;1.67;;;1.20;;
9445;SDS011;4761;49.490;10.908;2024-02-23T14:41:49;1.10;;;0.90;;
9445;SDS011;4761;49.490;10.908;2024-02-23T14:44:14;2.07;;;1.20;;
9445;SDS011;4761;49.490;10.908;2024-02-23T14:46:40;1.87;;;1.10;;
9445;SDS011;4761;49.490;10.908;2024-02-23T14:49:06;1.53;;;1.00;;
9445;SDS011;4761;49.490;10.908;2024-02-23T14:51:32;1.53;;;1.07;;
9445;SDS011;4761;49.490;10.908;2024-02-23T14:53:59;1.40;;;0.80;;